Time;durP1;ratioP1;P1;durP2;ratioP2;P2;SDS_P1;SDS_P2;PMS_P1;PMS_P2;Temp;Humidity;BMP_temperature;BMP_pressure;BME280_temperature;BME280_humidity;BME280_pressure;Samples;Min_cycle;Max_cycle;Signal;HPM_P1;HPM_P2
2022/10/14 00:01:31;;;;;;;1999.90;999.90;;;;;;;11.21;100.00;98245.66;4971596;28;20444;-73
2022/10/14 00:03:57;;;;;;;1999.90;999.90;;;;;;;11.26;100.00;98249.13;4974544;28;20046;-73
2022/10/14 00:06:25;;;;;;;1999.90;999.90;;;;;;;11.22;100.00;98239.06;4974524;28;20042;-74
2022/10/14 00:08:51;;;;;;;1999.90;999.90;;;;;;;11.24;100.00;98236.84;4971566;28;20027;-74
2022/10/14 00:11:23;;;;;;;1999.90;999.90;;;;;;;11.25;100.00;98241.19;4969461;28;20023;-73
2022/10/14 00:13:52;;;;;;;1999.90;999.90;;;;;;;11.21;100.00;98238.22;4975635;28;20061;-73
2022/10/14 00:16:24;;;;;;;1999.90;999.90;;;;;;;11.20;100.00;98238.53;4990472;28;20026;-74
2022/10/14 00:18:50;;;;;;;1999.90;999.90;;;;;;;11.17;100.00;98237.22;4990930;28;20035;-73
2022/10/14 00:21:16;;;;;;;1999.90;999.90;;;;;;;11.28;100.00;98237.88;4990545;28;20037;-73
2022/10/14 00:23:41;;;;;;;1999.90;999.90;;;;;;;11.32;100.00;98233.47;4990444;28;20034;-73
2022/10/14 00:26:14;;;;;;;1999.90;999.90;;;;;;;11.40;100.00;98232.00;4990331;28;20033;-72
2022/10/14 00:28:39;;;;;;;1999.90;999.90;;;;;;;11.45;100.00;98232.75;4990294;28;20018;-75
2022/10/14 00:31:05;;;;;;;1999.90;999.90;;;;;;;11.51;100.00;98237.03;4991144;28;20034;-74
2022/10/14 00:33:31;;;;;;;1999.90;999.90;;;;;;;11.59;100.00;98230.09;4993915;28;20547;-74
2022/10/14 00:36:01;;;;;;;1999.90;999.90;;;;;;;11.59;100.00;98230.91;4993763;28;20019;-73
2022/10/14 00:38:27;;;;;;;1999.90;999.90;;;;;;;11.64;100.00;98233.59;4993722;28;20027;-74
2022/10/14 00:40:53;;;;;;;1999.90;999.90;;;;;;;11.48;100.00;98214.91;4993804;28;20168;-74
2022/10/14 00:43:20;;;;;;;1999.90;999.90;;;;;;;11.48;100.00;98225.84;4993812;28;20042;-74
2022/10/14 00:45:46;;;;;;;1999.90;999.90;;;;;;;11.34;100.00;98227.69;4993322;28;20484;-73
2022/10/14 00:48:12;;;;;;;1999.90;999.90;;;;;;;11.37;100.00;98222.41;4988895;28;20025;-73
2022/10/14 00:50:42;;;;;;;1999.90;999.90;;;;;;;11.35;100.00;98221.91;4974050;28;20030;-72
2022/10/14 00:53:09;;;;;;;1999.90;999.90;;;;;;;11.38;100.00;98215.03;4973864;28;20031;-74
2022/10/14 00:55:37;;;;;;;1999.90;999.90;;;;;;;11.49;100.00;98214.63;4973798;28;20031;-74
2022/10/14 00:58:03;;;;;;;1999.90;999.90;;;;;;;11.26;100.00;98218.19;4973963;28;20129;-74
2022/10/14 01:00:29;;;;;;;1999.90;999.90;;;;;;;11.27;100.00;98215.19;4973859;28;20449;-74
2022/10/14 01:02:55;;;;;;;1999.90;999.90;;;;;;;11.21;100.00;98221.81;4973852;28;20038;-74
2022/10/14 01:05:21;;;;;;;1999.90;999.90;;;;;;;11.28;100.00;98205.03;4984490;28;20042;-74
2022/10/14 01:08:11;;;;;;;1999.90;999.90;;;;;;;11.22;100.00;98200.72;4991017;28;20381;-74
2022/10/14 01:11:18;;;;;;;1999.90;999.90;;;;;;;11.19;100.00;98195.84;4992830;28;20034;-73
2022/10/14 01:14:01;;;;;;;1999.90;999.90;;;;;;;11.19;100.00;98185.69;4990287;28;20034;-74
2022/10/14 01:16:56;;;;;;;1999.90;999.90;;;;;;;11.21;100.00;98190.91;4991602;28;20045;-74
2022/10/14 01:19:30;;;;;;;1999.90;999.90;;;;;;;11.07;100.00;98176.28;4993129;28;20121;-74
2022/10/14 01:22:16;;;;;;;1999.90;999.90;;;;;;;11.00;100.00;98181.28;4993031;28;20038;-73
2022/10/14 01:24:54;;;;;;;1999.90;999.90;;;;;;;11.03;100.00;98178.78;4992736;28;20080;-73
2022/10/14 01:27:22;;;;;;;1999.90;999.90;;;;;;;11.08;100.00;98178.72;4992924;28;20118;-74
2022/10/14 01:30:18;;;;;;;1999.90;999.90;;;;;;;11.12;100.00;98174.28;4992832;28;20030;-74
2022/10/14 01:33:02;;;;;;;1999.90;999.90;;;;;;;11.17;100.00;98174.22;4992844;28;20041;-74
2022/10/14 01:36:02;;;;;;;1999.90;999.90;;;;;;;11.28;100.00;98178.44;4992652;28;20039;-74
2022/10/14 01:38:34;;;;;;;1999.90;999.90;;;;;;;11.28;100.00;98166.69;4988581;28;20070;-74
2022/10/14 01:41:05;;;;;;;1999.90;999.90;;;;;;;11.42;100.00;98167.59;4992465;28;20032;-73
2022/10/14 01:43:32;;;;;;;1999.90;999.90;;;;;;;11.40;100.00;98164.34;4992597;28;20092;-74
2022/10/14 01:46:02;;;;;;;1999.90;999.90;;;;;;;11.35;100.00;98158.94;4997104;28;20033;-75
2022/10/14 01:48:32;;;;;;;1999.90;999.90;;;;;;;11.38;100.00;98166.53;4998640;28;20032;-75
2022/10/14 01:51:00;;;;;;;1999.90;999.90;;;;;;;11.52;100.00;98163.91;4992675;28;20392;-74
2022/10/14 01:53:35;;;;;;;1999.90;999.90;;;;;;;11.49;100.00;98156.28;4992650;28;20639;-74
2022/10/14 01:56:02;;;;;;;1999.90;999.90;;;;;;;11.52;100.00;98156.50;4992451;28;20070;-75
2022/10/14 01:58:30;;;;;;;1999.90;999.90;;;;;;;11.34;100.00;98151.03;4992302;28;20396;-73
2022/10/14 02:00:56;;;;;;;1999.90;999.90;;;;;;;11.34;100.00;98151.03;4992469;28;20026;-74
2022/10/14 02:03:21;;;;;;;1999.90;999.90;;;;;;;11.39;100.00;98149.00;4992189;28;20048;-74
2022/10/14 02:05:52;;;;;;;1999.90;999.90;;;;;;;11.33;100.00;98146.63;4992328;28;20026;-75
2022/10/14 02:09:02;;;;;;;1999.90;999.90;;;;;;;11.01;100.00;98148.16;4991911;28;20050;-74
2022/10/14 02:11:40;;;;;;;1999.90;999.90;;;;;;;10.79;100.00;98141.59;4992391;28;20026;-75
2022/10/14 02:14:32;;;;;;;1999.90;999.90;;;;;;;10.82;100.00;98136.34;4992300;28;20436;-73
2022/10/14 02:17:16;;;;;;;1999.90;999.90;;;;;;;10.77;100.00;98130.13;4992309;28;20132;-74
2022/10/14 02:19:54;;;;;;;1999.90;999.90;;;;;;;10.71;100.00;98130.19;4992413;28;20525;-74
2022/10/14 02:22:26;;;;;;;1999.90;999.90;;;;;;;10.70;100.00;98135.97;4990867;28;20037;-74
2022/10/14 02:24:57;;;;;;;1999.90;999.90;;;;;;;10.65;100.00;98130.56;4991877;28;20041;-74
2022/10/14 02:27:25;;;;;;;1999.90;999.90;;;;;;;10.54;100.00;98120.81;4991838;28;20023;-74
2022/10/14 02:29:53;;;;;;;1999.90;999.90;;;;;;;10.54;100.00;98135.31;4992016;28;20029;-74
2022/10/14 02:32:21;;;;;;;1999.90;999.90;;;;;;;10.54;100.00;98127.13;4991663;28;20112;-73
2022/10/14 02:34:51;;;;;;;1999.90;999.90;;;;;;;10.52;100.00;98128.50;4991695;28;20042;-74
2022/10/14 02:37:18;;;;;;;1999.90;999.90;;;;;;;10.47;100.00;98125.81;4991748;28;20022;-74
2022/10/14 02:39:54;;;;;;;1999.90;999.90;;;;;;;10.34;100.00;98126.53;4990323;28;20432;-74
2022/10/14 02:42:19;;;;;;;1999.90;999.90;;;;;;;10.27;100.00;98124.13;4991645;28;20030;-74
2022/10/14 02:44:52;;;;;;;1999.90;999.90;;;;;;;10.18;100.00;98114.91;4991507;28;20085;-74
2022/10/14 02:47:18;;;;;;;1999.90;999.90;;;;;;;10.15;100.00;98123.69;4991542;28;20026;-74
2022/10/14 02:49:43;;;;;;;1999.90;999.90;;;;;;;10.10;100.00;98129.19;4991917;28;20030;-74
2022/10/14 02:52:08;;;;;;;1999.90;999.90;;;;;;;10.21;100.00;98125.28;4991651;28;20018;-73
2022/10/14 02:54:34;;;;;;;1999.90;999.90;;;;;;;10.24;100.00;98124.72;4990832;28;20384;-74
2022/10/14 02:56:59;;;;;;;1999.90;999.90;;;;;;;10.15;100.00;98127.25;4991502;28;20050;-74
2022/10/14 02:59:25;;;;;;;1999.90;999.90;;;;;;;10.10;100.00;98130.00;4991311;28;20029;-74
2022/10/14 03:01:50;;;;;;;1999.90;999.90;;;;;;;10.08;100.00;98140.41;4991753;28;20026;-74
2022/10/14 03:04:15;;;;;;;1999.90;999.90;;;;;;;10.00;100.00;98143.75;4991350;28;20037;-73
2022/10/14 03:06:41;;;;;;;1999.90;999.90;;;;;;;9.98;100.00;98145.16;4991260;28;20102;-73
2022/10/14 03:09:06;;;;;;;1999.90;999.90;;;;;;;9.98;100.00;98142.41;4991179;28;20026;-74
2022/10/14 03:11:31;;;;;;;1999.90;999.90;;;;;;;9.92;100.00;98133.44;4991473;28;20097;-73
2022/10/14 03:13:57;;;;;;;1999.90;999.90;;;;;;;10.02;100.00;98133.34;4991492;28;20491;-74
2022/10/14 03:16:22;;;;;;;1999.90;999.90;;;;;;;10.02;100.00;98127.09;4991566;28;20154;-74
2022/10/14 03:18:47;;;;;;;1999.90;999.90;;;;;;;10.05;100.00;98137.44;4991593;28;20161;-73
2022/10/14 03:21:12;;;;;;;1999.90;999.90;;;;;;;10.06;100.00;98136.31;4991158;28;20100;-74
2022/10/14 03:23:38;;;;;;;1999.90;999.90;;;;;;;10.08;100.00;98134.94;4991200;28;20041;-74
2022/10/14 03:26:03;;;;;;;1999.90;999.90;;;;;;;10.13;100.00;98131.34;4991268;28;20037;-74
2022/10/14 03:28:28;;;;;;;1999.90;999.90;;;;;;;10.25;100.00;98137.25;4993353;28;20034;-74
2022/10/14 03:30:54;;;;;;;1999.90;999.90;;;;;;;10.36;100.00;98138.81;4993273;28;20057;-74
2022/10/14 03:33:19;;;;;;;1999.90;999.90;;;;;;;10.32;100.00;98131.44;4992585;28;20058;-74
2022/10/14 03:35:44;;;;;;;1999.90;999.90;;;;;;;10.43;100.00;98139.25;4992765;28;20476;-73
2022/10/14 03:38:10;;;;;;;1999.90;999.90;;;;;;;10.57;100.00;98132.00;4991073;28;20031;-74
2022/10/14 03:40:35;;;;;;;1999.90;999.90;;;;;;;10.67;100.00;98131.06;4991076;28;20030;-74
2022/10/14 03:43:00;;;;;;;1999.90;999.90;;;;;;;10.64;100.00;98123.44;4991235;28;20037;-74
2022/10/14 03:45:27;;;;;;;1999.90;999.90;;;;;;;10.60;100.00;98133.34;4991016;28;20443;-74
2022/10/14 03:47:53;;;;;;;1999.90;999.90;;;;;;;10.67;100.00;98117.38;4991225;28;20392;-74
2022/10/14 03:50:18;;;;;;;1999.90;999.90;;;;;;;10.68;100.00;98117.09;4991112;28;20036;-74
2022/10/14 03:52:43;;;;;;;1999.90;999.90;;;;;;;10.77;100.00;98110.97;4989785;28;20771;-74
2022/10/14 03:55:09;;;;;;;1999.90;999.90;;;;;;;10.76;100.00;98110.16;4992456;28;20030;-74
2022/10/14 03:57:34;;;;;;;1999.90;999.90;;;;;;;10.77;100.00;98110.97;4997063;28;20476;-74
2022/10/14 04:00:00;;;;;;;1999.90;999.90;;;;;;;10.73;100.00;98116.22;4993777;28;20030;-74
2022/10/14 04:02:25;;;;;;;1999.90;999.90;;;;;;;10.55;100.00;98114.25;4990787;28;20031;-74
2022/10/14 04:04:51;;;;;;;1999.90;999.90;;;;;;;10.69;100.00;98123.38;4986526;28;20080;-74
2022/10/14 04:07:16;;;;;;;1999.90;999.90;;;;;;;10.74;100.00;98118.66;4974895;28;20507;-74
2022/10/14 04:09:42;;;;;;;1999.90;999.90;;;;;;;10.69;100.00;98116.00;4975100;28;20031;-72
2022/10/14 04:12:07;;;;;;;1999.90;999.90;;;;;;;10.69;100.00;98120.63;4975267;28;20031;-74
2022/10/14 04:14:32;;;;;;;1999.90;999.90;;;;;;;10.78;100.00;98121.63;4986110;28;20030;-73
2022/10/14 04:16:58;;;;;;;1999.90;999.90;;;;;;;10.85;100.00;98124.00;4994436;28;20022;-73
2022/10/14 04:19:23;;;;;;;1999.90;999.90;;;;;;;10.85;100.00;98124.00;4994679;28;20039;-74
2022/10/14 04:21:48;;;;;;;1999.90;999.90;;;;;;;10.80;100.00;98115.88;4994340;28;20460;-74
2022/10/14 04:24:14;;;;;;;1999.90;999.90;;;;;;;10.80;100.00;98110.41;4994196;28;20096;-74
2022/10/14 04:26:40;;;;;;;1999.90;999.90;;;;;;;10.60;100.00;98117.75;4976533;28;20073;-74
2022/10/14 04:29:05;;;;;;;1999.90;999.90;;;;;;;10.55;100.00;98120.53;4974790;28;20046;-74
2022/10/14 04:31:30;;;;;;;1999.90;999.90;;;;;;;10.37;100.00;98117.75;4974633;28;20558;-74
2022/10/14 04:33:57;;;;;;;1999.90;999.90;;;;;;;10.38;100.00;98119.34;4974341;28;20031;-73
2022/10/14 04:36:22;;;;;;;1999.90;999.90;;;;;;;10.39;100.00;98121.00;4974430;28;20082;-74
2022/10/14 04:38:47;;;;;;;1999.90;999.90;;;;;;;10.36;100.00;98122.41;4974548;28;20038;-74
2022/10/14 04:41:12;;;;;;;1999.90;999.90;;;;;;;10.36;100.00;98116.09;4974707;28;20393;-73
2022/10/14 04:43:38;;;;;;;1999.90;999.90;;;;;;;10.38;100.00;98119.34;4974353;28;20125;-74
2022/10/14 04:46:04;;;;;;;1999.90;999.90;;;;;;;10.35;100.00;98120.75;4974606;28;20072;-74
2022/10/14 04:48:29;;;;;;;1999.90;999.90;;;;;;;10.36;100.00;98121.56;4974733;28;20499;-74
2022/10/14 04:50:55;;;;;;;1999.90;999.90;;;;;;;10.34;100.00;98119.13;4974374;28;20034;-73
2022/10/14 04:53:20;;;;;;;1999.90;999.90;;;;;;;10.37;100.00;98118.53;4972813;28;20533;-73
2022/10/14 04:55:48;;;;;;;1999.90;999.90;;;;;;;10.31;100.00;98118.88;4974319;28;20054;-73
2022/10/14 04:58:14;;;;;;;1999.90;999.90;;;;;;;10.37;100.00;98123.22;4974237;28;20162;-74
2022/10/14 05:00:40;;;;;;;1999.90;999.90;;;;;;;10.40;100.00;98117.97;4974293;28;20476;-74
2022/10/14 05:03:06;;;;;;;1999.90;999.90;;;;;;;10.46;100.00;98121.47;4974144;28;20057;-74
2022/10/14 05:05:31;;;;;;;1999.90;999.90;;;;;;;10.27;100.00;98118.66;4972436;28;20018;-73
2022/10/14 05:07:57;;;;;;;1999.90;999.90;;;;;;;10.41;100.00;98111.38;4962895;28;20047;-73
2022/10/14 05:10:23;;;;;;;1999.90;999.90;;;;;;;10.40;100.00;98122.63;4981293;28;20038;-73
2022/10/14 05:12:49;;;;;;;1999.90;999.90;;;;;;;10.34;100.00;98121.84;4974549;28;20045;-75
2022/10/14 05:15:15;;;;;;;1999.90;999.90;;;;;;;10.40;100.00;98119.91;4973590;28;20038;-73
2022/10/14 05:17:43;;;;;;;1999.90;999.90;;;;;;;10.42;100.00;98117.69;4982369;28;20117;-74
2022/10/14 05:20:09;;;;;;;1999.90;999.90;;;;;;;10.42;100.00;98121.22;4975182;28;20049;-75
2022/10/14 05:22:34;;;;;;;1999.90;999.90;;;;;;;10.53;100.00;98117.25;4970316;28;20105;-76
2022/10/14 05:25:00;;;;;;;1999.90;999.90;;;;;;;10.57;100.00;98112.03;4977136;28;20122;-75
2022/10/14 05:27:25;;;;;;;1999.90;999.90;;;;;;;10.56;100.00;98113.94;4978023;28;20015;-75
2022/10/14 05:29:51;;;;;;;1999.90;999.90;;;;;;;10.64;100.00;98113.31;4978906;28;20105;-75
2022/10/14 05:32:18;;;;;;;1999.90;999.90;;;;;;;10.62;100.00;98114.69;4983546;28;20030;-73
2022/10/14 05:34:43;;;;;;;1999.90;999.90;;;;;;;10.69;100.00;98113.25;4965529;28;20127;-73
2022/10/14 05:37:08;;;;;;;1999.90;999.90;;;;;;;10.62;100.00;98111.97;4967129;28;20039;-73
2022/10/14 05:39:34;;;;;;;1999.90;999.90;;;;;;;10.77;100.00;98107.13;4971920;28;20034;-73
2022/10/14 05:41:59;;;;;;;1999.90;999.90;;;;;;;10.86;100.00;98120.16;4963335;28;20038;-73
2022/10/14 05:44:24;;;;;;;1999.90;999.90;;;;;;;10.84;100.00;98120.44;4972295;28;20026;-74
2022/10/14 05:46:50;;;;;;;1999.90;999.90;;;;;;;10.86;100.00;98115.50;4980104;28;20117;-74
2022/10/14 05:49:15;;;;;;;1999.90;999.90;;;;;;;10.87;100.00;98114.38;4983014;28;20105;-73
2022/10/14 05:51:40;;;;;;;1999.90;999.90;;;;;;;10.78;100.00;98107.94;4981097;28;20023;-73
2022/10/14 05:54:05;;;;;;;1999.90;999.90;;;;;;;10.96;100.00;98115.38;4981029;28;20105;-74
2022/10/14 05:56:31;;;;;;;1999.90;999.90;;;;;;;11.00;100.00;98121.88;4981095;28;20057;-74
2022/10/14 05:58:56;;;;;;;1999.90;999.90;;;;;;;10.93;100.00;98124.16;4977657;28;20074;-73
2022/10/14 06:01:22;;;;;;;1999.90;999.90;;;;;;;11.10;100.00;98121.75;4989218;28;20035;-74
2022/10/14 06:03:51;;;;;;;1999.90;999.90;;;;;;;11.10;100.00;98113.53;4992299;28;20041;-75
2022/10/14 06:06:17;;;;;;;1999.90;999.90;;;;;;;11.18;100.00;98117.56;4995012;28;20591;-73
2022/10/14 06:08:43;;;;;;;1999.90;999.90;;;;;;;11.25;100.00;98123.47;4995470;28;20053;-74
2022/10/14 06:11:09;;;;;;;1999.90;999.90;;;;;;;11.30;100.00;98128.88;4990643;28;20109;-74
2022/10/14 06:13:34;;;;;;;1999.90;999.90;;;;;;;11.28;100.00;98128.34;4990898;28;20113;-74
2022/10/14 06:16:07;;;;;;;1999.90;999.90;;;;;;;11.34;100.00;98131.84;4990763;28;20038;-74
2022/10/14 06:18:34;;;;;;;1999.90;999.90;;;;;;;11.26;100.00;98134.13;4970510;28;20552;-74
2022/10/14 06:21:00;;;;;;;1999.90;999.90;;;;;;;11.31;100.00;98124.22;4972190;28;20528;-74
2022/10/14 06:23:26;;;;;;;1999.90;999.90;;;;;;;11.28;100.00;98128.34;4971215;28;20027;-74
2022/10/14 06:25:51;;;;;;;1999.90;999.90;;;;;;;11.34;100.00;98129.91;4972201;28;20043;-74
2022/10/14 06:28:17;;;;;;;1999.90;999.90;;;;;;;11.37;100.00;98129.31;4972083;28;20059;-74
2022/10/14 06:30:48;;;;;;;1999.90;999.90;;;;;;;11.28;100.00;98123.69;4972064;28;20066;-74
2022/10/14 06:33:13;;;;;;;1999.90;999.90;;;;;;;11.33;100.00;98132.94;4971873;28;20053;-73
2022/10/14 06:35:39;;;;;;;1999.90;999.90;;;;;;;11.40;100.00;98136.97;4972109;28;20031;-74
2022/10/14 06:38:04;;;;;;;1999.90;999.90;;;;;;;11.42;100.00;98145.69;4972034;28;20388;-74
2022/10/14 06:40:29;;;;;;;1999.90;999.90;;;;;;;11.36;100.00;98140.56;4971968;28;20031;-73
2022/10/14 06:42:57;;;;;;;1999.90;999.90;;;;;;;11.33;100.00;98150.19;4971968;28;20481;-74
2022/10/14 06:45:22;;;;;;;1999.90;999.90;;;;;;;11.26;100.00;98156.03;4981693;28;20033;-74
2022/10/14 06:47:47;;;;;;;1999.90;999.90;;;;;;;11.19;100.00;98152.03;4984797;28;20038;-74
2022/10/14 06:50:13;;;;;;;1999.90;999.90;;;;;;;11.32;100.00;98156.78;4963121;28;20023;-75
2022/10/14 06:52:38;;;;;;;1999.90;999.90;;;;;;;11.31;100.00;98160.63;4952727;29;20042;-74
2022/10/14 06:55:04;;;;;;;1999.90;999.90;;;;;;;11.42;100.00;98158.56;4966322;28;20070;-74
2022/10/14 06:57:29;;;;;;;1999.90;999.90;;;;;;;11.57;100.00;98158.34;4974404;28;20023;-74
2022/10/14 06:59:55;;;;;;;1999.90;999.90;;;;;;;11.44;100.00;98148.13;4972651;28;20030;-74
2022/10/14 07:02:20;;;;;;;1999.90;999.90;;;;;;;11.46;100.00;98154.13;4971393;28;20477;-74
2022/10/14 07:04:45;;;;;;;1999.90;999.90;;;;;;;11.41;100.00;98160.47;4971565;28;20045;-74
2022/10/14 07:07:10;;;;;;;1999.90;999.90;;;;;;;11.61;100.00;98162.94;4990870;28;20125;-75
2022/10/14 07:09:36;;;;;;;1999.90;999.90;;;;;;;11.73;100.00;98165.25;4991347;28;20033;-74
2022/10/14 07:12:01;;;;;;;1999.90;999.90;;;;;;;11.72;100.00;98158.94;4991304;28;20070;-75
2022/10/14 07:14:26;;;;;;;1999.90;999.90;;;;;;;11.94;100.00;98163.81;4991197;28;20042;-75
2022/10/14 07:16:52;;;;;;;1999.90;999.90;;;;;;;11.98;100.00;98164.03;4991068;28;20026;-75
2022/10/14 07:19:18;;;;;;;1999.90;999.90;;;;;;;11.85;100.00;98164.78;4991151;28;20048;-74
2022/10/14 07:21:45;;;;;;;1999.90;999.90;;;;;;;11.78;100.00;98165.97;4991683;28;20027;-74
2022/10/14 07:24:12;;;;;;;1999.90;999.90;;;;;;;11.92;100.00;98162.47;4991954;28;20030;-75
2022/10/14 07:26:37;;;;;;;1999.90;999.90;;;;;;;12.01;100.00;98166.16;4992030;28;20034;-74
2022/10/14 07:29:04;;;;;;;1999.90;999.90;;;;;;;11.99;100.00;98171.16;4990110;28;20034;-75
2022/10/14 07:31:29;;;;;;;1999.90;999.90;;;;;;;11.90;100.00;98160.06;4991300;28;20027;-75
2022/10/14 07:33:55;;;;;;;1999.90;999.90;;;;;;;11.93;100.00;98166.88;4992548;28;20030;-74
2022/10/14 07:36:20;;;;;;;1999.90;999.90;;;;;;;12.04;100.00;98160.09;4991344;28;20038;-75
2022/10/14 07:38:47;;;;;;;1999.90;999.90;;;;;;;12.13;100.00;98166.50;4990919;28;20144;-75
2022/10/14 07:41:19;;;;;;;1999.90;999.90;;;;;;;12.33;100.00;98168.91;4993753;28;21472;-74
2022/10/14 07:43:49;;;;;;;1999.90;999.90;;;;;;;12.30;100.00;98167.59;4994720;28;20058;-74
2022/10/14 07:46:27;;;;;;;1999.90;999.90;;;;;;;12.38;100.00;98165.25;4993702;28;20034;-75
2022/10/14 07:48:52;;;;;;;1999.90;999.90;;;;;;;12.69;100.00;98169.88;4994962;28;20030;-75
2022/10/14 07:51:18;;;;;;;1999.90;999.90;;;;;;;13.00;100.00;98164.59;4994723;28;20500;-75
2022/10/14 07:53:43;;;;;;;1999.90;999.90;;;;;;;13.15;100.00;98172.59;4994943;28;20112;-74
2022/10/14 07:56:09;;;;;;;1999.90;999.90;;;;;;;13.30;100.00;98168.69;4994665;28;20061;-74
2022/10/14 07:58:34;;;;;;;1999.90;999.90;;;;;;;13.23;100.00;98171.03;4993356;28;20034;-75
2022/10/14 08:00:59;;;;;;;1999.90;999.90;;;;;;;13.36;100.00;98175.69;4994624;28;20181;-75
2022/10/14 08:03:25;;;;;;;1999.90;999.90;;;;;;;13.41;100.00;98176.41;4995037;28;20033;-74
2022/10/14 08:06:00;;;;;;;1999.90;999.90;;;;;;;13.59;100.00;98180.16;4994477;28;20038;-75
2022/10/14 08:08:27;;;;;;;1999.90;999.90;;;;;;;13.75;100.00;98181.41;4994353;28;20484;-75
2022/10/14 08:11:04;;;;;;;1999.90;999.90;;;;;;;13.93;100.00;98179.63;4994671;28;20049;-75
2022/10/14 08:13:30;;;;;;;1999.90;999.90;;;;;;;13.72;100.00;98182.00;4995709;28;20109;-75
2022/10/14 08:15:55;;;;;;;1999.90;999.90;;;;;;;14.07;100.00;98179.53;4999717;28;20124;-75
2022/10/14 08:18:21;;;;;;;1999.90;999.90;;;;;;;14.52;100.00;98183.13;4998651;28;20471;-74
2022/10/14 08:20:47;;;;;;;1999.90;999.90;;;;;;;15.20;100.00;98190.88;4994183;28;20435;-75
2022/10/14 08:23:13;;;;;;;1999.90;999.90;;;;;;;15.82;100.00;98183.28;4994200;28;20038;-74
2022/10/14 08:25:39;;;;;;;1999.90;999.90;;;;;;;16.48;100.00;98190.19;4994182;28;20050;-75
2022/10/14 08:28:04;;;;;;;1999.90;999.90;;;;;;;16.79;100.00;98190.78;4994239;28;20112;-75
2022/10/14 08:30:30;;;;;;;1999.90;999.90;;;;;;;17.26;100.00;98185.25;4994023;28;20034;-74
2022/10/14 08:32:55;;;;;;;1999.90;999.90;;;;;;;18.40;100.00;98194.03;4994487;28;20551;-74
2022/10/14 08:35:21;;;;;;;1999.90;999.90;;;;;;;19.13;100.00;98195.06;4981481;28;20507;-75
2022/10/14 08:38:00;;;;;;;1999.90;999.90;;;;;;;20.90;80.44;98195.72;4973405;28;20511;-75
2022/10/14 08:40:42;;;;;;;1999.90;999.90;;;;;;;21.77;73.29;98199.09;4974218;28;20077;-75
2022/10/14 08:43:15;;;;;;;1999.90;999.90;;;;;;;22.34;65.96;98208.75;4974167;28;20027;-75
2022/10/14 08:45:50;;;;;;;1999.90;999.90;;;;;;;23.49;61.87;98205.00;4973939;28;20027;-75
2022/10/14 08:48:21;;;;;;;1999.90;999.90;;;;;;;24.09;59.10;98209.53;4974293;28;20038;-75
2022/10/14 08:51:04;;;;;;;1999.90;999.90;;;;;;;23.58;58.94;98211.97;4973988;28;20465;-76
2022/10/14 08:53:37;;;;;;;1999.90;999.90;;;;;;;24.28;55.81;98217.00;4973606;28;20101;-76
2022/10/14 08:56:04;;;;;;;1999.90;999.90;;;;;;;24.23;56.22;98209.75;4974335;28;20564;-73
2022/10/14 08:58:37;;;;;;;1999.90;999.90;;;;;;;23.92;56.61;98205.31;4974375;28;20038;-73
2022/10/14 09:01:25;;;;;;;1999.90;999.90;;;;;;;23.24;58.07;98207.34;4975739;28;20031;-73
2022/10/14 09:04:04;;;;;;;1999.90;999.90;;;;;;;23.67;57.14;98222.88;4975883;28;20472;-73
2022/10/14 09:06:32;;;;;;;1999.90;999.90;;;;;;;23.33;57.51;98205.94;4973418;28;20081;-74
2022/10/14 09:09:22;;;;;;;1999.90;999.90;;;;;;;24.11;55.86;98204.41;4972674;28;20031;-73
2022/10/14 09:12:11;;;;;;;1999.90;999.90;;;;;;;24.52;53.37;98206.16;4974050;28;20062;-72
2022/10/14 09:14:45;;;;;;;1999.90;999.90;;;;;;;24.32;53.24;98201.88;4976042;28;20046;-74
2022/10/14 09:17:25;;;;;;;1999.90;999.90;;;;;;;25.54;50.34;98211.25;4973553;28;20476;-73
2022/10/14 09:20:01;;;;;;;1999.90;999.90;;;;;;;25.23;50.74;98203.34;4973698;28;20027;-74
2022/10/14 09:22:27;;;;;;;1999.90;999.90;;;;;;;25.10;50.39;98208.41;4973625;28;20073;-74
2022/10/14 09:24:52;;;;;;;1999.90;999.90;;;;;;;25.52;50.04;98196.84;4973603;28;20027;-74
2022/10/14 09:27:23;;;;;;;1999.90;999.90;;;;;;;25.54;50.08;98198.03;4973685;28;20129;-74
2022/10/14 09:29:56;;;;;;;1999.90;999.90;;;;;;;24.99;51.40;98201.91;4973782;28;20485;-74
2022/10/14 09:32:40;;;;;;;1999.90;999.90;;;;;;;24.99;51.45;98196.31;4973872;28;20043;-74
2022/10/14 09:35:39;;;;;;;1999.90;999.90;;;;;;;24.86;51.99;98198.56;4967760;28;20019;-74
2022/10/14 09:38:04;;;;;;;1999.90;999.90;;;;;;;25.38;49.85;98200.28;4970284;28;20109;-74
2022/10/14 09:40:34;;;;;;;1999.90;999.90;;;;;;;26.33;47.62;98208.63;4974150;28;20062;-73
2022/10/14 09:43:08;;;;;;;1999.90;999.90;;;;;;;25.33;49.58;98192.25;4982960;28;20022;-73
2022/10/14 09:45:48;;;;;;;1999.90;999.90;;;;;;;25.51;49.31;98196.03;4977644;28;20186;-73
2022/10/14 09:48:17;;;;;;;1999.90;999.90;;;;;;;24.27;52.17;98196.63;4980759;28;20088;-74
2022/10/14 09:50:50;;;;;;;1999.90;999.90;;;;;;;21.84;59.63;98179.78;4981619;28;20031;-73
2022/10/14 09:53:30;;;;;;;1999.90;999.90;;;;;;;21.20;62.97;98171.09;4980648;28;20061;-72
2022/10/14 09:56:01;;;;;;;1999.90;999.90;;;;;;;21.21;63.77;98167.94;4980490;28;20093;-72
2022/10/14 09:58:42;;;;;;;1999.90;999.90;;;;;;;21.06;64.90;98165.94;4981550;28;20073;-73
2022/10/14 10:01:14;;;;;;;1999.90;999.90;;;;;;;21.56;63.77;98167.16;4980219;28;20046;-75
2022/10/14 10:03:40;;;;;;;1999.90;999.90;;;;;;;22.82;58.61;98171.09;4980659;28;20107;-74
2022/10/14 10:06:10;;;;;;;1999.90;999.90;;;;;;;22.36;60.07;98171.00;4984218;28;20725;-75
2022/10/14 10:08:40;;;;;;;1999.90;999.90;;;;;;;22.25;59.47;98172.75;4972564;28;20043;-74
2022/10/14 10:11:12;;;;;;;1999.90;999.90;;;;;;;22.93;57.83;98164.53;4974591;28;20054;-74
2022/10/14 10:13:40;;;;;;;1999.90;999.90;;;;;;;23.97;54.34;98167.81;4970082;28;20035;-74
2022/10/14 10:16:17;;;;;;;1999.90;999.90;;;;;;;22.99;57.05;98170.63;4956511;28;20174;-73
2022/10/14 10:18:42;;;;;;;1999.90;999.90;;;;;;;23.01;57.70;98159.91;4958490;28;20042;-74
2022/10/14 10:21:25;;;;;;;1999.90;999.90;;;;;;;24.25;53.60;98162.63;4977449;28;20030;-73
2022/10/14 10:23:59;;;;;;;1999.90;999.90;;;;;;;24.15;53.04;98159.72;4978406;28;20061;-73
2022/10/14 10:26:30;;;;;;;1999.90;999.90;;;;;;;22.19;58.43;98160.28;4985836;28;20428;-73
2022/10/14 10:28:57;;;;;;;1999.90;999.90;;;;;;;23.64;54.00;98154.59;4980021;28;20049;-73
2022/10/14 10:31:59;;;;;;;1999.90;999.90;;;;;;;23.99;52.80;98154.28;4977756;28;20037;-72
2022/10/14 10:34:39;;;;;;;1999.90;999.90;;;;;;;24.14;50.76;98146.91;4971342;28;20026;-74
2022/10/14 10:37:16;;;;;;;1999.90;999.90;;;;;;;24.63;49.87;98144.72;4975744;28;20042;-74
2022/10/14 10:39:50;;;;;;;1999.90;999.90;;;;;;;24.71;50.08;98149.22;4977898;28;20489;-74
2022/10/14 10:42:27;;;;;;;1999.90;999.90;;;;;;;24.53;50.04;98140.59;4982444;28;20031;-73
2022/10/14 10:45:14;;;;;;;1999.90;999.90;;;;;;;23.19;53.41;98138.66;4978460;28;20073;-74
2022/10/14 10:47:45;;;;;;;1999.90;999.90;;;;;;;22.46;58.06;98129.75;4980377;28;20030;-74
2022/10/14 10:50:29;;;;;;;1999.90;999.90;;;;;;;24.71;51.31;98123.22;4978132;28;20030;-73
2022/10/14 10:53:19;;;;;;;1999.90;999.90;;;;;;;25.05;50.02;98127.56;4969245;28;20403;-72
2022/10/14 10:55:53;;;;;;;1999.90;999.90;;;;;;;24.86;50.57;98114.59;4976314;28;20026;-72
2022/10/14 10:58:45;;;;;;;1999.90;999.90;;;;;;;23.72;51.56;98111.59;4979292;28;20030;-73